Time;durP1;ratioP1;P1;durP2;ratioP2;P2;SDS_P1;SDS_P2;PMS_P1;PMS_P2;Temp;Humidity;BMP_temperature;BMP_pressure;BME280_temperature;BME280_humidity;BME280_pressure;Samples;Min_cycle;Max_cycle;Signal;HPM_P1;HPM_P2
2023/10/20 00:01:55;;;;;;;15.80;9.43;;;;;;;;;;5009548;28;20604;-77
2023/10/20 00:04:20;;;;;;;15.98;9.18;;;;;;;;;;5010478;28;20069;-77
2023/10/20 00:06:45;;;;;;;14.32;8.90;;;;;;;;;;4998359;28;20045;-77
2023/10/20 00:09:14;;;;;;;19.05;10.43;;;;;;;;;;5024448;28;20554;-77
2023/10/20 00:11:41;;;;;;;22.23;12.90;;;;;;;;;;5026414;28;20431;-77
2023/10/20 00:14:06;;;;;;;18.55;12.15;;;;;;;;;;5025649;28;20034;-77
2023/10/20 00:16:31;;;;;;;17.65;10.48;;;;;;;;;;5022558;28;20040;-77
2023/10/20 00:19:00;;;;;;;18.52;10.82;;;;;;;;;;5010386;28;20053;-77
2023/10/20 00:21:26;;;;;;;19.65;10.45;;;;;;;;;;5011491;28;20037;-77
2023/10/20 00:23:51;;;;;;;15.20;9.40;;;;;;;;;;4994502;28;20389;-77
2023/10/20 00:26:17;;;;;;;16.23;9.30;;;;;;;;;;4994600;28;20037;-77
2023/10/20 00:28:42;;;;;;;17.25;9.35;;;;;;;;;;5026824;28;20029;-77
2023/10/20 00:31:07;;;;;;;14.60;9.45;;;;;;;;;;5014916;28;20430;-77
2023/10/20 00:33:33;;;;;;;14.95;9.88;;;;;;;;;;5028035;28;20116;-77
2023/10/20 00:35:58;;;;;;;13.98;9.32;;;;;;;;;;5030479;28;20053;-77
2023/10/20 00:38:23;;;;;;;12.48;8.60;;;;;;;;;;5012096;28;20030;-77
2023/10/20 00:40:49;;;;;;;11.70;8.57;;;;;;;;;;5029345;28;20042;-78
2023/10/20 00:43:15;;;;;;;12.95;6.68;;;;;;;;;;5025719;28;20409;-77
2023/10/20 00:45:43;;;;;;;8.43;5.47;;;;;;;;;;5028185;28;20034;-77
2023/10/20 00:48:09;;;;;;;8.38;5.32;;;;;;;;;;5013829;28;20433;-78
2023/10/20 00:50:35;;;;;;;6.20;4.82;;;;;;;;;;4994518;28;20104;-77
2023/10/20 00:53:01;;;;;;;4.88;4.20;;;;;;;;;;5012316;28;20060;-77
2023/10/20 00:55:27;;;;;;;7.20;4.43;;;;;;;;;;5013022;28;20038;-77
2023/10/20 00:57:54;;;;;;;8.23;4.97;;;;;;;;;;4997249;28;20083;-77
2023/10/20 01:00:20;;;;;;;5.32;3.90;;;;;;;;;;4996148;28;20026;-78
2023/10/20 01:02:46;;;;;;;5.32;3.92;;;;;;;;;;5016574;28;20327;-77
2023/10/20 01:05:19;;;;;;;4.47;3.70;;;;;;;;;;4995998;28;20045;-77
2023/10/20 01:07:44;;;;;;;5.90;3.50;;;;;;;;;;5014215;28;20046;-78
2023/10/20 01:10:10;;;;;;;5.03;3.10;;;;;;;;;;5013916;28;20103;-77
2023/10/20 01:12:35;;;;;;;5.38;2.63;;;;;;;;;;4997079;28;20057;-77
2023/10/20 01:15:02;;;;;;;6.70;3.13;;;;;;;;;;5015101;28;20053;-77
2023/10/20 01:17:28;;;;;;;4.80;2.38;;;;;;;;;;5022721;28;20699;-77
2023/10/20 01:19:54;;;;;;;3.45;2.20;;;;;;;;;;5028384;28;20038;-78
2023/10/20 01:22:19;;;;;;;2.67;1.98;;;;;;;;;;5011992;28;20049;-78
2023/10/20 01:24:45;;;;;;;3.42;2.30;;;;;;;;;;5026222;28;20029;-77
2023/10/20 01:27:10;;;;;;;2.30;2.10;;;;;;;;;;5019913;28;20033;-77
2023/10/20 01:29:35;;;;;;;2.42;2.22;;;;;;;;;;5012912;28;20026;-78
2023/10/20 01:32:01;;;;;;;3.53;2.53;;;;;;;;;;4994694;28;20042;-77
2023/10/20 01:34:26;;;;;;;2.80;2.20;;;;;;;;;;4994637;28;20061;-77
2023/10/20 01:36:51;;;;;;;2.42;2.20;;;;;;;;;;5011646;28;20045;-77
2023/10/20 01:39:17;;;;;;;2.22;1.90;;;;;;;;;;4997579;28;20046;-77
2023/10/20 01:41:42;;;;;;;3.03;2.13;;;;;;;;;;4995853;28;20018;-77
2023/10/20 01:44:11;;;;;;;3.40;2.00;;;;;;;;;;4995671;28;20124;-78
2023/10/20 01:46:36;;;;;;;3.63;2.10;;;;;;;;;;5019083;28;20429;-77
2023/10/20 01:49:01;;;;;;;7.85;1.90;;;;;;;;;;5012740;28;20022;-77
2023/10/20 01:51:27;;;;;;;1.60;1.50;;;;;;;;;;4996100;28;20132;-77
2023/10/20 01:53:52;;;;;;;2.35;1.80;;;;;;;;;;4997937;28;20034;-78
2023/10/20 01:56:18;;;;;;;4.25;1.70;;;;;;;;;;5016464;28;20041;-77
2023/10/20 01:58:43;;;;;;;3.63;2.55;;;;;;;;;;5033041;28;20112;-77
2023/10/20 02:01:09;;;;;;;5.10;2.30;;;;;;;;;;5013483;28;20029;-77
2023/10/20 02:03:34;;;;;;;9.98;1.95;;;;;;;;;;5034118;28;20033;-78
2023/10/20 02:05:59;;;;;;;3.20;1.80;;;;;;;;;;5031848;28;20025;-78
2023/10/20 02:08:25;;;;;;;1.40;1.20;;;;;;;;;;5032078;28;20451;-78
2023/10/20 02:10:50;;;;;;;1.15;1.15;;;;;;;;;;5029205;28;20042;-77
2023/10/20 02:13:15;;;;;;;1.30;1.20;;;;;;;;;;5031027;28;20049;-78
2023/10/20 02:15:48;;;;;;;1.40;1.30;;;;;;;;;;5028810;28;20168;-78
2023/10/20 02:18:14;;;;;;;1.10;1.10;;;;;;;;;;5030653;28;20036;-77
2023/10/20 02:20:39;;;;;;;2.30;1.40;;;;;;;;;;5015155;28;20527;-78
2023/10/20 02:23:05;;;;;;;1.20;1.20;;;;;;;;;;5034034;28;20029;-77
2023/10/20 02:25:30;;;;;;;2.65;1.30;;;;;;;;;;5029152;28;20068;-77
2023/10/20 02:27:56;;;;;;;2.35;1.00;;;;;;;;;;5032018;28;20052;-77
2023/10/20 02:30:21;;;;;;;0.90;0.90;;;;;;;;;;5031935;28;20362;-77
2023/10/20 02:32:46;;;;;;;2.08;1.05;;;;;;;;;;5013919;28;20029;-78
2023/10/20 02:35:12;;;;;;;1.40;1.30;;;;;;;;;;5012747;28;20026;-77
2023/10/20 02:37:37;;;;;;;0.95;0.95;;;;;;;;;;4997472;28;20049;-77
2023/10/20 02:40:06;;;;;;;0.70;0.70;;;;;;;;;;4995565;28;20162;-77
2023/10/20 02:42:32;;;;;;;0.90;0.90;;;;;;;;;;5012906;28;20056;-77
2023/10/20 02:44:58;;;;;;;0.60;0.60;;;;;;;;;;5013143;28;20030;-77
2023/10/20 02:47:24;;;;;;;0.50;0.50;;;;;;;;;;5013054;28;20038;-77
2023/10/20 02:49:55;;;;;;;0.50;0.50;;;;;;;;;;5012783;28;20053;-77
2023/10/20 02:52:24;;;;;;;0.60;0.60;;;;;;;;;;4995067;28;21398;-77
2023/10/20 02:54:53;;;;;;;0.50;0.50;;;;;;;;;;5014748;28;20505;-79
2023/10/20 02:57:20;;;;;;;0.70;0.70;;;;;;;;;;5014354;28;20033;-77
2023/10/20 02:59:46;;;;;;;1.13;0.68;;;;;;;;;;5013923;28;20021;-77
2023/10/20 03:02:11;;;;;;;0.57;0.50;;;;;;;;;;5012938;28;20045;-77
2023/10/20 03:04:37;;;;;;;0.50;0.50;;;;;;;;;;4995979;28;20386;-77
2023/10/20 03:07:02;;;;;;;0.50;0.50;;;;;;;;;;5021808;28;20092;-77
2023/10/20 03:09:27;;;;;;;0.40;0.40;;;;;;;;;;5025740;28;20026;-77
2023/10/20 03:11:53;;;;;;;0.60;0.60;;;;;;;;;;5026923;28;20090;-77
2023/10/20 03:14:18;;;;;;;0.68;0.63;;;;;;;;;;5008159;28;20049;-77
2023/10/20 03:16:45;;;;;;;0.80;0.80;;;;;;;;;;5026568;28;20132;-76
2023/10/20 03:19:11;;;;;;;4.95;0.60;;;;;;;;;;5007472;28;20050;-78
2023/10/20 03:21:38;;;;;;;0.47;0.47;;;;;;;;;;5026046;28;20065;-77
2023/10/20 03:24:04;;;;;;;0.35;0.35;;;;;;;;;;5026861;28;20060;-77
2023/10/20 03:26:30;;;;;;;0.50;0.50;;;;;;;;;;5028496;28;20025;-76
2023/10/20 03:28:56;;;;;;;0.52;0.32;;;;;;;;;;5026858;28;20029;-77
2023/10/20 03:31:21;;;;;;;0.32;0.32;;;;;;;;;;5026441;28;20045;-77
2023/10/20 03:33:48;;;;;;;0.47;0.47;;;;;;;;;;5026150;28;20524;-77
2023/10/20 03:36:13;;;;;;;0.50;0.50;;;;;;;;;;5006131;28;20102;-76
2023/10/20 03:38:39;;;;;;;0.85;0.70;;;;;;;;;;5014010;28;20500;-77
2023/10/20 03:41:09;;;;;;;0.47;0.47;;;;;;;;;;5013160;28;20117;-77
2023/10/20 03:43:35;;;;;;;0.50;0.50;;;;;;;;;;5012068;28;20045;-77
2023/10/20 03:46:01;;;;;;;0.50;0.50;;;;;;;;;;4995688;28;20140;-77
2023/10/20 03:48:29;;;;;;;2.35;0.63;;;;;;;;;;5029273;28;20168;-79
2023/10/20 03:50:54;;;;;;;0.68;0.55;;;;;;;;;;5016276;28;20379;-78
2023/10/20 03:53:23;;;;;;;0.40;0.40;;;;;;;;;;5009609;28;20045;-78
2023/10/20 03:55:58;;;;;;;0.50;0.50;;;;;;;;;;5006352;28;20038;-76
2023/10/20 03:58:24;;;;;;;0.47;0.47;;;;;;;;;;5010040;28;20506;-77
2023/10/20 04:00:53;;;;;;;0.43;0.43;;;;;;;;;;5012365;28;20120;-77
2023/10/20 04:03:19;;;;;;;0.70;0.60;;;;;;;;;;4993302;28;20021;-77
2023/10/20 04:05:44;;;;;;;0.50;0.50;;;;;;;;;;5013499;28;20454;-77
2023/10/20 04:08:09;;;;;;;0.50;0.50;;;;;;;;;;5013069;28;20040;-77
2023/10/20 04:10:35;;;;;;;0.55;0.55;;;;;;;;;;5010010;28;20505;-76
2023/10/20 04:13:02;;;;;;;0.60;0.60;;;;;;;;;;4995588;28;20461;-76
2023/10/20 04:15:27;;;;;;;0.43;0.43;;;;;;;;;;4994335;28;20036;-76
2023/10/20 04:17:53;;;;;;;0.40;0.40;;;;;;;;;;5023231;28;20033;-76
2023/10/20 04:20:19;;;;;;;0.50;0.50;;;;;;;;;;5024683;28;20034;-77
2023/10/20 04:22:52;;;;;;;0.50;0.50;;;;;;;;;;5029773;28;20033;-78
2023/10/20 04:25:19;;;;;;;0.75;0.70;;;;;;;;;;5028867;28;20040;-76
2023/10/20 04:27:48;;;;;;;0.75;0.50;;;;;;;;;;5025381;28;20270;-78
2023/10/20 04:49:59;;;;;;;0.80;0.80;;;;;;;;;;5027701;28;20040;-80
2023/10/20 05:08:08;;;;;;;1.00;1.00;;;;;;;;;;5027572;28;20137;-80
2023/10/20 05:10:34;;;;;;;1.27;1.17;;;;;;;;;;5027071;28;20132;-79
2023/10/20 05:12:59;;;;;;;1.20;1.20;;;;;;;;;;5031927;28;20061;-79
2023/10/20 05:15:26;;;;;;;1.15;1.15;;;;;;;;;;5027940;28;20072;-79
2023/10/20 05:17:52;;;;;;;2.42;1.23;;;;;;;;;;5030143;28;20021;-79
2023/10/20 05:20:20;;;;;;;1.73;1.27;;;;;;;;;;5030393;28;20038;-78
2023/10/20 05:22:46;;;;;;;1.58;1.48;;;;;;;;;;5031683;28;20107;-80
2023/10/20 05:25:11;;;;;;;1.30;1.20;;;;;;;;;;5024186;28;20054;-80
2023/10/20 05:27:37;;;;;;;1.20;1.20;;;;;;;;;;5028552;28;20037;-78
2023/10/20 05:30:03;;;;;;;2.25;1.52;;;;;;;;;;5029010;28;20392;-79
2023/10/20 05:32:31;;;;;;;1.10;1.10;;;;;;;;;;5034955;28;20045;-80
2023/10/20 05:34:58;;;;;;;1.67;1.27;;;;;;;;;;5031420;28;20064;-79
2023/10/20 05:37:23;;;;;;;1.40;1.30;;;;;;;;;;5032006;28;20045;-80
2023/10/20 05:39:49;;;;;;;1.35;1.25;;;;;;;;;;5032148;28;20034;-79
2023/10/20 05:42:16;;;;;;;1.52;1.27;;;;;;;;;;5032735;28;20560;-79
2023/10/20 05:44:58;;;;;;;1.38;1.27;;;;;;;;;;5035137;28;20393;-79
2023/10/20 05:47:27;;;;;;;1.23;1.20;;;;;;;;;;5026916;28;21538;-80
2023/10/20 05:49:53;;;;;;;7.00;1.60;;;;;;;;;;5025143;28;20034;-80
2023/10/20 05:52:27;;;;;;;4.40;1.60;;;;;;;;;;5029524;28;20060;-79
2023/10/20 05:54:56;;;;;;;1.13;1.13;;;;;;;;;;5015612;28;20033;-78
2023/10/20 05:57:22;;;;;;;1.40;1.30;;;;;;;;;;5019919;28;20113;-79
2023/10/20 05:59:48;;;;;;;1.85;1.35;;;;;;;;;;5030108;28;20014;-79
2023/10/20 06:02:13;;;;;;;1.75;1.50;;;;;;;;;;5026045;28;20383;-79
2023/10/20 06:04:38;;;;;;;1.50;1.40;;;;;;;;;;5026233;28;20045;-78
2023/10/20 06:07:04;;;;;;;3.13;2.70;;;;;;;;;;5042334;28;20044;-79
2023/10/20 06:09:29;;;;;;;6.30;1.45;;;;;;;;;;5028234;28;20045;-78
2023/10/20 06:11:55;;;;;;;5.22;2.40;;;;;;;;;;5027286;28;20413;-78
2023/10/20 06:14:21;;;;;;;1.48;1.33;;;;;;;;;;5029845;28;20040;-78
2023/10/20 06:16:46;;;;;;;2.75;1.92;;;;;;;;;;5023691;28;20034;-78
2023/10/20 06:19:11;;;;;;;1.40;1.02;;;;;;;;;;5004496;28;20100;-78
2023/10/20 06:21:38;;;;;;;1.58;1.20;;;;;;;;;;5017067;28;20061;-78
2023/10/20 06:24:04;;;;;;;2.72;1.00;;;;;;;;;;5016202;28;20053;-77
2023/10/20 06:26:29;;;;;;;7.95;1.38;;;;;;;;;;5020356;28;20489;-78
2023/10/20 06:28:54;;;;;;;1.23;0.93;;;;;;;;;;5028645;28;20030;-78
2023/10/20 06:34:12;;;;;;;2.95;1.00;;;;;;;;;;5024650;28;20029;-77
2023/10/20 06:36:43;;;;;;;0.90;0.90;;;;;;;;;;5023673;28;20038;-78
2023/10/20 06:39:13;;;;;;;1.45;1.20;;;;;;;;;;5022216;28;20009;-77
2023/10/20 06:41:38;;;;;;;0.82;0.82;;;;;;;;;;5027347;28;20030;-79
2023/10/20 06:44:03;;;;;;;1.00;1.00;;;;;;;;;;5023223;28;20420;-79
2023/10/20 06:46:28;;;;;;;1.05;1.00;;;;;;;;;;5020070;28;20040;-79
2023/10/20 06:48:54;;;;;;;2.95;1.00;;;;;;;;;;5013537;28;20061;-79
2023/10/20 06:51:19;;;;;;;0.90;0.90;;;;;;;;;;5011856;28;20037;-79
2023/10/20 06:53:45;;;;;;;3.78;1.00;;;;;;;;;;5011272;28;20448;-79
2023/10/20 06:56:10;;;;;;;1.90;1.00;;;;;;;;;;5016955;28;20033;-79
2023/10/20 06:58:35;;;;;;;0.85;0.80;;;;;;;;;;5026868;28;20090;-79
2023/10/20 07:01:04;;;;;;;1.05;1.00;;;;;;;;;;5023417;28;20037;-78
2023/10/20 07:03:32;;;;;;;1.00;1.00;;;;;;;;;;5024399;28;20034;-78
2023/10/20 07:06:00;;;;;;;2.10;1.00;;;;;;;;;;5023443;28;20032;-78
2023/10/20 07:08:26;;;;;;;0.75;0.75;;;;;;;;;;5013450;28;20112;-78
2023/10/20 07:10:51;;;;;;;0.80;0.70;;;;;;;;;;5011711;28;20169;-79
2023/10/20 07:13:17;;;;;;;0.77;0.77;;;;;;;;;;5015461;28;20042;-78
2023/10/20 07:15:43;;;;;;;0.80;0.80;;;;;;;;;;5011015;28;20042;-79
2023/10/20 07:18:11;;;;;;;2.05;0.93;;;;;;;;;;5021052;28;20105;-79
2023/10/20 07:20:38;;;;;;;1.33;1.00;;;;;;;;;;5029811;28;20048;-78
2023/10/20 07:23:07;;;;;;;0.80;0.80;;;;;;;;;;5029620;28;20033;-78
2023/10/20 07:25:32;;;;;;;0.85;0.85;;;;;;;;;;5027162;28;20568;-78
2023/10/20 07:27:58;;;;;;;0.90;0.90;;;;;;;;;;5016643;28;20076;-79
2023/10/20 07:30:23;;;;;;;0.75;0.75;;;;;;;;;;5014967;28;20050;-78
2023/10/20 07:32:51;;;;;;;0.80;0.80;;;;;;;;;;5017428;28;20037;-78
2023/10/20 07:35:16;;;;;;;0.70;0.70;;;;;;;;;;5016289;28;20068;-78
2023/10/20 07:37:43;;;;;;;0.70;0.70;;;;;;;;;;5021907;28;20033;-78
2023/10/20 07:40:08;;;;;;;0.85;0.85;;;;;;;;;;5026200;28;20049;-78
2023/10/20 07:42:35;;;;;;;1.00;1.00;;;;;;;;;;5029545;28;20041;-78
2023/10/20 07:45:00;;;;;;;0.75;0.75;;;;;;;;;;5026166;28;20025;-78
2023/10/20 07:47:26;;;;;;;0.90;0.90;;;;;;;;;;5025874;28;20038;-81
2023/10/20 07:49:52;;;;;;;0.90;0.90;;;;;;;;;;5031415;28;20045;-81
2023/10/20 07:52:17;;;;;;;1.27;0.77;;;;;;;;;;5022137;28;20034;-80
2023/10/20 07:54:43;;;;;;;0.88;0.88;;;;;;;;;;5029286;28;20061;-80
2023/10/20 07:57:10;;;;;;;0.93;0.90;;;;;;;;;;5049294;28;20041;-80
2023/10/20 07:59:35;;;;;;;0.70;0.70;;;;;;;;;;5015286;28;20472;-79
2023/10/20 08:02:00;;;;;;;2.17;0.85;;;;;;;;;;5013998;28;20054;-80
2023/10/20 08:04:26;;;;;;;0.80;0.80;;;;;;;;;;5015436;28;20048;-79
2023/10/20 08:06:54;;;;;;;0.98;0.95;;;;;;;;;;5014678;28;20037;-79
2023/10/20 08:09:20;;;;;;;0.75;0.75;;;;;;;;;;5015694;28;20099;-79
2023/10/20 08:11:45;;;;;;;0.70;0.70;;;;;;;;;;5015693;28;20087;-80
2023/10/20 08:14:11;;;;;;;0.80;0.80;;;;;;;;;;5015695;28;20034;-81
2023/10/20 08:16:37;;;;;;;1.05;0.80;;;;;;;;;;5016746;28;20067;-82
2023/10/20 08:19:02;;;;;;;0.50;0.50;;;;;;;;;;5027826;28;20034;-82
2023/10/20 08:21:29;;;;;;;0.85;0.68;;;;;;;;;;5017654;28;20029;-82
2023/10/20 08:23:58;;;;;;;0.70;0.70;;;;;;;;;;5019452;28;20029;-79
2023/10/20 08:26:23;;;;;;;0.60;0.60;;;;;;;;;;5027250;28;20030;-79
2023/10/20 08:28:49;;;;;;;0.55;0.55;;;;;;;;;;5027980;28;20040;-80
2023/10/20 08:31:16;;;;;;;1.80;0.70;;;;;;;;;;5022840;28;20083;-79
2023/10/20 08:33:43;;;;;;;0.50;0.50;;;;;;;;;;5026978;28;20042;-79
2023/10/20 08:36:22;;;;;;;0.47;0.47;;;;;;;;;;5021786;28;20043;-79
2023/10/20 08:38:49;;;;;;;0.60;0.60;;;;;;;;;;5013455;28;20022;-79
2023/10/20 08:41:21;;;;;;;4.05;0.52;;;;;;;;;;5012351;28;20037;-78
2023/10/20 08:43:47;;;;;;;0.52;0.50;;;;;;;;;;5014496;28;20040;-79
2023/10/20 08:46:14;;;;;;;2.70;0.47;;;;;;;;;;5026617;28;20176;-77
2023/10/20 08:48:41;;;;;;;1.10;0.50;;;;;;;;;;5047479;28;20025;-79
2023/10/20 08:51:07;;;;;;;0.70;0.32;;;;;;;;;;5026271;28;20084;-79
2023/10/20 08:53:35;;;;;;;1.80;0.60;;;;;;;;;;5028389;28;20028;-78
2023/10/20 08:56:01;;;;;;;0.30;0.30;;;;;;;;;;5033024;28;20041;-78
2023/10/20 08:58:29;;;;;;;3.40;0.30;;;;;;;;;;5029249;28;20254;-78
2023/10/20 09:00:55;;;;;;;1.00;0.70;;;;;;;;;;5025101;28;20037;-78
2023/10/20 09:03:21;;;;;;;0.75;0.50;;;;;;;;;;5029867;28;20064;-79
2023/10/20 09:05:46;;;;;;;2.25;0.40;;;;;;;;;;5029618;28;20461;-78
2023/10/20 09:08:14;;;;;;;0.30;0.30;;;;;;;;;;5037091;28;20034;-80
2023/10/20 09:10:45;;;;;;;0.30;0.30;;;;;;;;;;5033501;28;20512;-80
2023/10/20 09:13:11;;;;;;;0.22;0.22;;;;;;;;;;5023590;28;20379;-81
2023/10/20 09:15:37;;;;;;;1.85;0.40;;;;;;;;;;5028226;28;20029;-80
2023/10/20 09:18:06;;;;;;;0.35;0.35;;;;;;;;;;5025974;28;20022;-79
2023/10/20 09:20:32;;;;;;;0.40;0.40;;;;;;;;;;5018630;28;20045;-79
2023/10/20 09:22:57;;;;;;;1.63;0.57;;;;;;;;;;5018229;28;20072;-81
2023/10/20 09:25:22;;;;;;;1.23;0.43;;;;;;;;;;5026967;28;20040;-81
2023/10/20 09:27:48;;;;;;;0.68;0.57;;;;;;;;;;5023863;28;20045;-81
2023/10/20 09:30:14;;;;;;;0.60;0.60;;;;;;;;;;5017930;28;20025;-81
2023/10/20 09:32:39;;;;;;;0.40;0.40;;;;;;;;;;5017646;28;20041;-80
2023/10/20 09:35:05;;;;;;;0.50;0.50;;;;;;;;;;5018012;28;20034;-81
2023/10/20 09:37:31;;;;;;;0.68;0.40;;;;;;;;;;5015955;28;20038;-80
2023/10/20 09:40:06;;;;;;;0.55;0.52;;;;;;;;;;5030822;28;20047;-80
2023/10/20 09:42:40;;;;;;;0.43;0.30;;;;;;;;;;5018219;28;20034;-81
2023/10/20 09:45:09;;;;;;;0.40;0.40;;;;;;;;;;5028716;28;20505;-81
2023/10/20 09:47:43;;;;;;;0.40;0.40;;;;;;;;;;5010102;28;20026;-80
2023/10/20 09:50:11;;;;;;;0.73;0.63;;;;;;;;;;5020067;28;20042;-80
2023/10/20 09:52:39;;;;;;;0.50;0.50;;;;;;;;;;5031058;28;20088;-81
2023/10/20 09:55:07;;;;;;;2.72;0.50;;;;;;;;;;5018724;28;20154;-81
2023/10/20 09:57:33;;;;;;;1.95;0.40;;;;;;;;;;5010539;28;20060;-78
2023/10/20 10:00:03;;;;;;;0.30;0.30;;;;;;;;;;5030798;28;20014;-80
2023/10/20 10:02:30;;;;;;;0.32;0.30;;;;;;;;;;5037185;28;20052;-80
2023/10/20 10:04:56;;;;;;;0.40;0.40;;;;;;;;;;5030770;28;20444;-81
2023/10/20 10:07:31;;;;;;;0.40;0.40;;;;;;;;;;5029970;28;20061;-80
2023/10/20 10:09:57;;;;;;;0.43;0.43;;;;;;;;;;5027468;28;20041;-81
2023/10/20 10:12:27;;;;;;;0.40;0.40;;;;;;;;;;5022373;28;20048;-80
2023/10/20 10:14:57;;;;;;;1.90;1.10;;;;;;;;;;5017362;28;20024;-77
2023/10/20 10:17:23;;;;;;;0.50;0.50;;;;;;;;;;5032556;28;20113;-80
2023/10/20 10:19:50;;;;;;;2.50;1.30;;;;;;;;;;5029071;28;20398;-77
2023/10/20 10:22:16;;;;;;;0.90;0.70;;;;;;;;;;5017758;28;20034;-83
2023/10/20 10:24:56;;;;;;;0.80;0.80;;;;;;;;;;5022478;28;20056;-79
2023/10/20 10:27:26;;;;;;;2.13;1.17;;;;;;;;;;5052712;28;20026;-80
2023/10/20 10:29:53;;;;;;;1.00;0.90;;;;;;;;;;5036823;28;20028;-79
2023/10/20 10:32:20;;;;;;;1.48;1.10;;;;;;;;;;5036443;28;20038;-80
2023/10/20 10:34:48;;;;;;;2.08;0.80;;;;;;;;;;5036338;28;20034;-82
2023/10/20 10:37:16;;;;;;;0.90;0.90;;;;;;;;;;5030718;28;20038;-82
2023/10/20 10:39:42;;;;;;;0.70;0.70;;;;;;;;;;5016723;28;20034;-79
2023/10/20 10:42:07;;;;;;;1.00;0.90;;;;;;;;;;5015542;28;20030;-80
2023/10/20 10:44:36;;;;;;;3.88;1.08;;;;;;;;;;5038126;23;20104;-76
2023/10/20 10:47:16;;;;;;;1.33;1.00;;;;;;;;;;5001292;28;20381;-76
2023/10/20 10:49:47;;;;;;;5.18;1.10;;;;;;;;;;5005424;28;20135;-76
2023/10/20 10:52:12;;;;;;;2.22;1.17;;;;;;;;;;5006934;28;20038;-77
2023/10/20 10:54:37;;;;;;;1.63;1.10;;;;;;;;;;5007089;28;20042;-77
2023/10/20 10:57:03;;;;;;;1.60;1.30;;;;;;;;;;5024195;28;20401;-77
2023/10/20 10:59:29;;;;;;;1.58;1.00;;;;;;;;;;5041041;28;20147;-77
2023/10/20 11:01:55;;;;;;;5.70;1.40;;;;;;;;;;5039834;28;20148;-76
2023/10/20 11:04:21;;;;;;;3.75;1.30;;;;;;;;;;5043118;28;20480;-76
2023/10/20 11:06:46;;;;;;;1.20;1.10;;;;;;;;;;5046803;28;20040;-76
2023/10/20 11:09:18;;;;;;;1.20;1.10;;;;;;;;;;5041865;28;20079;-76
2023/10/20 11:11:48;;;;;;;1.27;1.20;;;;;;;;;;5042841;28;20128;-77
2023/10/20 11:14:16;;;;;;;1.52;1.20;;;;;;;;;;5041380;28;20125;-77
2023/10/20 11:16:42;;;;;;;1.85;1.15;;;;;;;;;;5043073;28;20041;-76
2023/10/20 11:19:07;;;;;;;1.00;1.00;;;;;;;;;;5046703;28;20040;-76
2023/10/20 11:21:47;;;;;;;1.02;1.02;;;;;;;;;;5024937;28;20136;-76
2023/10/20 11:24:28;;;;;;;1.55;0.82;;;;;;;;;;5041730;28;20036;-76
2023/10/20 11:27:01;;;;;;;0.90;0.90;;;;;;;;;;5046902;28;20028;-76
2023/10/20 11:29:31;;;;;;;0.95;0.80;;;;;;;;;;5041870;28;20052;-77
2023/10/20 11:32:07;;;;;;;1.50;1.08;;;;;;;;;;5035649;28;20342;-76
2023/10/20 11:34:35;;;;;;;1.05;1.05;;;;;;;;;;5040320;28;20029;-76
2023/10/20 11:37:02;;;;;;;1.83;0.90;;;;;;;;;;5028095;28;20043;-76
2023/10/20 11:39:28;;;;;;;1.42;1.10;;;;;;;;;;5045619;28;20037;-76
2023/10/20 11:41:55;;;;;;;1.85;1.20;;;;;;;;;;5023346;28;20060;-76
2023/10/20 11:44:24;;;;;;;1.10;1.00;;;;;;;;;;5044996;28;20678;-79
2023/10/20 11:46:53;;;;;;;0.90;0.90;;;;;;;;;;5039912;28;20029;-77
2023/10/20 11:49:19;;;;;;;1.35;0.90;;;;;;;;;;5044778;28;20033;-77
2023/10/20 11:51:45;;;;;;;1.48;1.10;;;;;;;;;;5044244;28;20040;-77
2023/10/20 11:54:11;;;;;;;1.92;1.15;;;;;;;;;;5040481;28;20427;-77
2023/10/20 11:56:36;;;;;;;0.90;0.90;;;;;;;;;;5034135;28;20084;-77
2023/10/20 11:59:01;;;;;;;0.90;0.90;;;;;;;;;;5024876;28;20282;-77
2023/10/20 12:01:27;;;;;;;1.10;1.10;;;;;;;;;;5015240;28;20053;-77
2023/10/20 12:03:53;;;;;;;2.05;1.00;;;;;;;;;;5005198;28;20095;-77
2023/10/20 12:06:18;;;;;;;1.35;0.80;;;;;;;;;;5022178;28;20028;-77
2023/10/20 12:08:43;;;;;;;2.47;1.20;;;;;;;;;;5042004;28;20017;-77
2023/10/20 12:11:09;;;;;;;0.80;0.80;;;;;;;;;;5043138;28;20052;-77
2023/10/20 12:13:36;;;;;;;2.08;0.77;;;;;;;;;;5043029;28;20117;-77
2023/10/20 12:16:04;;;;;;;1.10;1.00;;;;;;;;;;5041253;28;20400;-77
2023/10/20 12:18:29;;;;;;;1.02;1.00;;;;;;;;;;5041457;28;20040;-77
2023/10/20 12:20:55;;;;;;;1.30;1.20;;;;;;;;;;5045956;28;20021;-77
2023/10/20 12:23:20;;;;;;;1.45;1.20;;;;;;;;;;5041264;28;20100;-77
2023/10/20 12:25:45;;;;;;;1.25;1.15;;;;;;;;;;5040620;28;20037;-77
2023/10/20 12:28:11;;;;;;;0.90;0.90;;;;;;;;;;5042577;28;20396;-77
2023/10/20 12:30:36;;;;;;;1.17;1.08;;;;;;;;;;5039598;28;20501;-77
2023/10/20 12:33:01;;;;;;;1.25;1.15;;;;;;;;;;5040840;28;20087;-77
2023/10/20 12:35:27;;;;;;;2.47;0.90;;;;;;;;;;5038209;28;20044;-77
2023/10/20 12:37:52;;;;;;;1.38;1.27;;;;;;;;;;5032529;28;20116;-77
2023/10/20 12:40:18;;;;;;;1.00;1.00;;;;;;;;;;5021070;28;20084;-77
2023/10/20 12:42:43;;;;;;;1.25;1.17;;;;;;;;;;5018226;28;20603;-77
2023/10/20 12:45:09;;;;;;;1.10;1.10;;;;;;;;;;5026140;28;20029;-77
2023/10/20 12:47:35;;;;;;;1.30;1.20;;;;;;;;;;5019703;28;20057;-77
2023/10/20 12:50:01;;;;;;;1.08;1.08;;;;;;;;;;5043398;28;20029;-77
2023/10/20 12:52:28;;;;;;;2.58;1.02;;;;;;;;;;5042218;28;20515;-77
2023/10/20 12:54:53;;;;;;;1.88;1.30;;;;;;;;;;5040428;28;20029;-77
2023/10/20 12:57:19;;;;;;;0.95;0.95;;;;;;;;;;5022879;28;20206;-77
2023/10/20 12:59:44;;;;;;;1.00;1.00;;;;;;;;;;5042387;28;20091;-77
2023/10/20 13:02:10;;;;;;;0.80;0.80;;;;;;;;;;5022257;28;20232;-77
2023/10/20 13:04:35;;;;;;;1.17;1.17;;;;;;;;;;5042212;28;20079;-77
2023/10/20 13:07:02;;;;;;;0.80;0.80;;;;;;;;;;5042918;28;20053;-77
2023/10/20 13:09:28;;;;;;;0.85;0.85;;;;;;;;;;5042751;28;20048;-77
2023/10/20 13:11:56;;;;;;;0.95;0.90;;;;;;;;;;5040717;28;20041;-77
2023/10/20 13:14:21;;;;;;;0.70;0.70;;;;;;;;;;5043882;28;20475;-77
2023/10/20 13:16:46;;;;;;;1.15;1.05;;;;;;;;;;5040898;28;20156;-77
2023/10/20 13:19:12;;;;;;;0.73;0.73;;;;;;;;;;5040505;28;20037;-77
2023/10/20 13:21:37;;;;;;;0.80;0.80;;;;;;;;;;5041367;28;20111;-77
2023/10/20 13:24:03;;;;;;;0.80;0.80;;;;;;;;;;5037125;28;20425;-77
2023/10/20 13:26:28;;;;;;;0.70;0.70;;;;;;;;;;5041402;28;20021;-77
2023/10/20 13:28:54;;;;;;;1.08;0.77;;;;;;;;;;5044031;28;20055;-77
2023/10/20 13:31:22;;;;;;;0.68;0.68;;;;;;;;;;5017771;28;20291;-77
2023/10/20 13:33:48;;;;;;;1.02;0.90;;;;;;;;;;5043097;28;20082;-77
2023/10/20 13:36:13;;;;;;;2.38;0.60;;;;;;;;;;5042317;28;20028;-77
2023/10/20 13:38:38;;;;;;;1.50;0.60;;;;;;;;;;5023499;28;20600;-77
2023/10/20 13:41:05;;;;;;;0.70;0.70;;;;;;;;;;5040071;28;20029;-77
2023/10/20 13:43:30;;;;;;;0.70;0.70;;;;;;;;;;5042024;28;20040;-77
2023/10/20 13:45:56;;;;;;;0.55;0.55;;;;;;;;;;5023455;28;20078;-77
2023/10/20 13:48:21;;;;;;;1.35;0.80;;;;;;;;;;5038167;28;20021;-77
2023/10/20 13:50:47;;;;;;;0.68;0.63;;;;;;;;;;5039771;28;20017;-77
2023/10/20 13:53:14;;;;;;;0.70;0.70;;;;;;;;;;5042417;28;20045;-77
2023/10/20 13:55:40;;;;;;;0.50;0.50;;;;;;;;;;5042314;28;20502;-77
2023/10/20 13:58:05;;;;;;;0.65;0.60;;;;;;;;;;5025052;28;20026;-77
2023/10/20 14:00:33;;;;;;;0.60;0.60;;;;;;;;;;5028552;28;20045;-77
2023/10/20 14:03:00;;;;;;;0.60;0.60;;;;;;;;;;5005144;28;20021;-77
2023/10/20 14:05:27;;;;;;;0.50;0.50;;;;;;;;;;5025677;28;20029;-77
2023/10/20 14:07:53;;;;;;;0.52;0.52;;;;;;;;;;5025445;28;20029;-77
2023/10/20 14:10:18;;;;;;;0.70;0.70;;;;;;;;;;5027664;28;20053;-77
2023/10/20 14:12:43;;;;;;;0.60;0.60;;;;;;;;;;5027237;28;20040;-77
2023/10/20 14:15:09;;;;;;;0.60;0.60;;;;;;;;;;5023367;28;20112;-77
2023/10/20 14:17:34;;;;;;;0.70;0.70;;;;;;;;;;5002368;28;20112;-77
2023/10/20 14:20:00;;;;;;;0.80;0.68;;;;;;;;;;5007014;28;20550;-77
2023/10/20 14:22:26;;;;;;;0.52;0.52;;;;;;;;;;5011101;28;20456;-77
2023/10/20 14:24:51;;;;;;;0.60;0.60;;;;;;;;;;5030507;28;20120;-77
2023/10/20 14:27:16;;;;;;;0.65;0.50;;;;;;;;;;5043286;28;20033;-77
2023/10/20 14:29:42;;;;;;;0.68;0.68;;;;;;;;;;5045346;28;20088;-77
2023/10/20 14:32:09;;;;;;;0.95;0.60;;;;;;;;;;5044868;28;20396;-77
2023/10/20 14:34:35;;;;;;;0.40;0.40;;;;;;;;;;5045004;28;20036;-77
2023/10/20 14:37:03;;;;;;;0.50;0.50;;;;;;;;;;5043191;28;20037;-77
2023/10/20 14:39:28;;;;;;;0.50;0.50;;;;;;;;;;5044462;28;20029;-77
2023/10/20 14:41:54;;;;;;;0.40;0.40;;;;;;;;;;5046804;28;20379;-77
2023/10/20 14:44:19;;;;;;;0.50;0.50;;;;;;;;;;5044704;28;20032;-77
2023/10/20 14:46:47;;;;;;;0.55;0.55;;;;;;;;;;5039262;28;20560;-77
2023/10/20 14:49:13;;;;;;;1.52;0.45;;;;;;;;;;5023144;28;20194;-77
2023/10/20 14:51:38;;;;;;;1.13;0.55;;;;;;;;;;5042214;28;20037;-77
2023/10/20 14:54:03;;;;;;;0.40;0.40;;;;;;;;;;5043289;28;20028;-76
2023/10/20 14:56:29;;;;;;;0.47;0.47;;;;;;;;;;5042533;28;20013;-77
2023/10/20 14:58:56;;;;;;;0.60;0.60;;;;;;;;;;5042960;28;20029;-77
2023/10/20 15:01:22;;;;;;;0.40;0.40;;;;;;;;;;5042611;28;20071;-77
2023/10/20 15:03:47;;;;;;;0.40;0.40;;;;;;;;;;5045215;28;20072;-76
2023/10/20 15:06:13;;;;;;;0.43;0.43;;;;;;;;;;5044798;28;20029;-77
2023/10/20 15:08:38;;;;;;;0.40;0.40;;;;;;;;;;5043353;28;20029;-78
2023/10/20 15:11:07;;;;;;;0.47;0.47;;;;;;;;;;5041866;28;20045;-78
2023/10/20 15:13:33;;;;;;;0.60;0.60;;;;;;;;;;5044098;28;20041;-76
2023/10/20 15:16:04;;;;;;;1.98;0.70;;;;;;;;;;5042686;28;20029;-76
2023/10/20 15:18:30;;;;;;;0.45;0.45;;;;;;;;;;5045409;28;20044;-77